METAR Data
IDs: Format: Raw Decoded Include TAF

Data at: 1026 UTC 13 Aug 2022

SBKP 131000Z 12012KT CAVOK 12/09 Q1023